createdAt,value
2022-11-20T00:00:46.982Z,20.6
2022-11-20T00:02:30.727Z,20.7
2022-11-20T00:04:14.408Z,20.6
2022-11-20T00:05:58.097Z,20.6
2022-11-20T00:07:41.802Z,20.6
2022-11-20T00:09:25.504Z,20.6
2022-11-20T00:11:09.213Z,20.6
2022-11-20T00:12:52.892Z,20.6
2022-11-20T00:14:36.628Z,20.6
2022-11-20T00:16:20.322Z,20.6
2022-11-20T00:18:04.013Z,20.6
2022-11-20T00:19:47.720Z,20.6
2022-11-20T00:21:31.419Z,20.6
2022-11-20T00:23:15.110Z,20.6
2022-11-20T00:24:58.828Z,20.5
2022-11-20T00:26:42.541Z,20.5
2022-11-20T00:28:26.222Z,20.5
2022-11-20T00:30:09.927Z,20.5
2022-11-20T00:31:53.622Z,20.5
2022-11-20T00:33:37.332Z,20.5
2022-11-20T00:35:21.042Z,20.5
2022-11-20T00:37:04.747Z,20.5
2022-11-20T00:38:48.448Z,20.5
2022-11-20T00:40:32.138Z,20.5
2022-11-20T00:42:15.842Z,20.5
2022-11-20T00:43:59.551Z,20.5
2022-11-20T00:45:43.257Z,20.4
2022-11-20T00:47:26.977Z,20.4
2022-11-20T00:49:10.647Z,20.4
2022-11-20T00:50:54.362Z,20.4
2022-11-20T00:52:38.062Z,20.4
2022-11-20T00:54:21.795Z,20.4
2022-11-20T00:56:05.454Z,20.4
2022-11-20T00:57:49.173Z,20.4
2022-11-20T00:59:32.863Z,20.4
2022-11-20T01:01:16.573Z,20.4
2022-11-20T01:03:00.259Z,20.4
2022-11-20T01:04:43.964Z,20.4
2022-11-20T01:06:27.686Z,20.4
2022-11-20T01:08:11.373Z,20.4
2022-11-20T01:09:55.084Z,20.4
2022-11-20T01:11:38.781Z,20.4
2022-11-20T01:13:22.471Z,20.4
2022-11-20T01:15:06.180Z,20.4
2022-11-20T01:16:49.868Z,20.4
2022-11-20T01:18:33.580Z,20.4
2022-11-20T01:20:17.274Z,20.4
2022-11-20T01:22:00.979Z,20.4
2022-11-20T01:23:44.692Z,20.4
2022-11-20T01:25:28.382Z,20.4
2022-11-20T01:27:12.130Z,20.3
2022-11-20T01:28:55.808Z,20.3
2022-11-20T01:30:39.507Z,20.3
2022-11-20T01:32:23.218Z,20.4
2022-11-20T01:34:06.895Z,20.3
2022-11-20T01:35:50.612Z,20.3
2022-11-20T01:37:34.324Z,20.4
2022-11-20T01:39:17.990Z,20.3
2022-11-20T01:41:01.994Z,20.3
2022-11-20T01:42:45.672Z,20.3
2022-11-20T01:44:29.124Z,20.3
2022-11-20T01:46:12.809Z,20.4
2022-11-20T01:47:56.530Z,20.4
2022-11-20T01:49:40.229Z,20.3
2022-11-20T01:51:23.924Z,20.3
2022-11-20T01:53:07.624Z,20.3
2022-11-20T01:54:51.314Z,20.4
2022-11-20T01:56:35.024Z,20.3
2022-11-20T01:58:18.725Z,20.3
2022-11-20T02:00:02.414Z,20.3
2022-11-20T02:01:46.141Z,20.3
2022-11-20T02:03:29.830Z,20.4
2022-11-20T02:05:13.527Z,20.3
2022-11-20T02:06:57.220Z,20.4
2022-11-20T02:08:40.940Z,20.4
2022-11-20T02:10:24.635Z,20.3
2022-11-20T02:12:08.361Z,20.4
2022-11-20T02:13:52.035Z,20.4
2022-11-20T02:15:35.768Z,20.4
2022-11-20T02:17:19.461Z,20.4
2022-11-20T02:19:03.154Z,20.4
2022-11-20T02:20:46.852Z,20.4
2022-11-20T02:22:30.562Z,20.4
2022-11-20T02:24:14.270Z,20.4
2022-11-20T02:25:57.981Z,20.4
2022-11-20T02:27:41.675Z,20.4
2022-11-20T02:29:25.377Z,20.4
2022-11-20T02:31:09.074Z,20.4
2022-11-20T02:32:52.783Z,20.4
2022-11-20T02:34:36.486Z,20.4
2022-11-20T02:36:20.167Z,20.4
2022-11-20T02:38:03.921Z,20.4
2022-11-20T02:39:47.569Z,20.4
2022-11-20T02:41:31.290Z,20.3
2022-11-20T02:43:14.973Z,20.4
2022-11-20T02:44:58.676Z,20.4
2022-11-20T02:46:42.384Z,20.4
2022-11-20T02:48:26.088Z,20.4
2022-11-20T02:50:09.788Z,20.4
2022-11-20T02:51:53.500Z,20.4
2022-11-20T02:53:37.193Z,20.3
2022-11-20T02:55:20.906Z,20.3
2022-11-20T02:57:04.587Z,20.3
2022-11-20T02:58:48.289Z,20.3
2022-11-20T03:00:31.976Z,20.4
2022-11-20T03:02:15.697Z,20.3
2022-11-20T03:03:59.389Z,20.4
2022-11-20T03:05:43.085Z,20.3
2022-11-20T03:07:26.798Z,20.3
2022-11-20T03:09:10.485Z,20.3
2022-11-20T03:10:54.182Z,20.4
2022-11-20T03:12:37.890Z,20.4
2022-11-20T03:14:21.596Z,20.4
2022-11-20T03:16:05.302Z,20.4
2022-11-20T03:17:48.989Z,20.4
2022-11-20T03:19:32.695Z,20.4
2022-11-20T03:21:16.404Z,20.4
2022-11-20T03:23:00.103Z,20.4
2022-11-20T03:24:43.812Z,20.4
2022-11-20T03:26:27.528Z,20.4
2022-11-20T03:28:11.233Z,20.4
2022-11-20T03:29:54.938Z,20.4
2022-11-20T03:31:38.638Z,20.4
2022-11-20T03:33:22.323Z,20.4
2022-11-20T03:35:06.028Z,20.4
2022-11-20T03:36:49.725Z,20.4
2022-11-20T03:38:33.436Z,20.4
2022-11-20T03:40:17.131Z,20.4
2022-11-20T03:42:00.830Z,20.4
2022-11-20T03:43:44.550Z,20.4
2022-11-20T03:45:28.246Z,20.4
2022-11-20T03:47:11.929Z,20.4
2022-11-20T03:48:55.633Z,20.4
2022-11-20T03:50:39.328Z,20.4
2022-11-20T03:52:23.037Z,20.4
2022-11-20T03:54:06.725Z,20.4
2022-11-20T03:55:50.430Z,20.4
2022-11-20T03:57:34.135Z,20.4
2022-11-20T03:59:17.859Z,20.4
2022-11-20T04:01:01.549Z,20.4
2022-11-20T04:02:45.241Z,20.4
2022-11-20T04:04:28.941Z,20.4
2022-11-20T04:06:12.654Z,20.4
2022-11-20T04:07:56.357Z,20.4
2022-11-20T04:09:40.056Z,20.4
2022-11-20T04:11:23.752Z,20.4
2022-11-20T04:13:07.461Z,20.4
2022-11-20T04:14:51.195Z,20.4
2022-11-20T04:16:34.864Z,20.4
2022-11-20T04:18:18.556Z,20.4
2022-11-20T04:20:02.277Z,20.4
2022-11-20T04:21:45.977Z,20.4
2022-11-20T04:23:29.665Z,20.4
2022-11-20T04:25:13.378Z,20.4
2022-11-20T04:26:57.082Z,20.4
2022-11-20T04:28:40.804Z,20.4
2022-11-20T04:30:24.489Z,20.4
2022-11-20T04:32:08.193Z,20.4
2022-11-20T04:33:51.902Z,20.4
2022-11-20T04:35:35.595Z,20.4
2022-11-20T04:37:19.288Z,20.4
2022-11-20T04:39:02.992Z,20.4
2022-11-20T04:40:46.697Z,20.4
2022-11-20T04:42:30.419Z,20.4
2022-11-20T04:44:14.093Z,20.4
2022-11-20T04:45:57.804Z,20.4
2022-11-20T04:47:41.503Z,20.4
2022-11-20T04:49:25.207Z,20.4
2022-11-20T04:51:08.894Z,20.4
2022-11-20T04:52:52.605Z,20.4
2022-11-20T04:54:36.299Z,20.4
2022-11-20T04:56:19.998Z,20.4
2022-11-20T04:58:03.712Z,20.4
2022-11-20T04:59:47.420Z,20.4
2022-11-20T05:01:31.128Z,20.4
2022-11-20T05:03:14.820Z,20.4
2022-11-20T05:04:58.530Z,20.4
2022-11-20T05:06:42.235Z,20.4
2022-11-20T05:08:25.926Z,20.4
2022-11-20T05:10:09.634Z,20.4
2022-11-20T05:11:53.339Z,20.4
2022-11-20T05:13:37.019Z,20.4
2022-11-20T05:15:20.730Z,20.4
2022-11-20T05:17:04.441Z,20.4
2022-11-20T05:18:48.139Z,20.4
2022-11-20T05:20:31.827Z,20.4
2022-11-20T05:22:15.534Z,20.4
2022-11-20T05:23:59.250Z,20.4
2022-11-20T05:27:26.636Z,20.4
2022-11-20T05:29:10.329Z,20.4
2022-11-20T05:30:54.047Z,20.4
2022-11-20T05:32:37.756Z,20.4
2022-11-20T05:34:21.448Z,20.4
2022-11-20T05:36:05.137Z,20.4
2022-11-20T05:37:48.941Z,20.4
2022-11-20T05:39:32.553Z,20.4
2022-11-20T05:41:16.253Z,20.4
2022-11-20T05:42:59.938Z,20.4
2022-11-20T05:44:43.652Z,20.4
2022-11-20T05:46:27.351Z,20.4
2022-11-20T05:48:11.059Z,20.4
2022-11-20T05:49:54.747Z,20.4
2022-11-20T05:51:38.447Z,20.4
2022-11-20T05:53:22.164Z,20.5
2022-11-20T05:55:05.862Z,20.4
2022-11-20T05:56:49.562Z,20.5
2022-11-20T05:58:33.261Z,20.5
2022-11-20T06:00:16.958Z,20.5
2022-11-20T06:02:00.668Z,20.5
2022-11-20T06:03:44.352Z,20.5
2022-11-20T06:05:28.074Z,20.5
2022-11-20T06:07:11.772Z,20.5
2022-11-20T06:08:55.479Z,20.5
2022-11-20T06:10:39.174Z,20.5
2022-11-20T06:12:22.877Z,20.5
2022-11-20T06:14:06.581Z,20.5
2022-11-20T06:15:50.296Z,20.5
2022-11-20T06:17:33.994Z,20.5
2022-11-20T06:19:17.699Z,20.5
2022-11-20T06:21:01.397Z,20.5
2022-11-20T06:22:45.128Z,20.5
2022-11-20T06:24:28.801Z,20.5
2022-11-20T06:26:12.520Z,20.5
2022-11-20T06:27:56.194Z,20.5
2022-11-20T06:29:39.897Z,20.5
2022-11-20T06:31:23.603Z,20.5
2022-11-20T06:33:07.293Z,20.5
2022-11-20T06:34:50.996Z,20.5
2022-11-20T06:36:34.710Z,20.5
2022-11-20T06:38:18.395Z,20.5
2022-11-20T06:40:02.119Z,20.5
2022-11-20T06:41:45.796Z,20.5
2022-11-20T06:43:29.507Z,20.5
2022-11-20T06:45:13.207Z,20.5
2022-11-20T06:46:56.912Z,20.5
2022-11-20T06:48:40.614Z,20.5
2022-11-20T06:50:24.326Z,20.5
2022-11-20T06:52:08.050Z,20.5
2022-11-20T06:53:51.735Z,20.4
2022-11-20T06:55:35.433Z,20.4
2022-11-20T06:57:19.142Z,20.4
2022-11-20T06:59:02.841Z,20.4
2022-11-20T07:00:46.546Z,20.4
2022-11-20T07:02:30.251Z,20.4
2022-11-20T07:04:13.951Z,20.4
2022-11-20T07:05:57.681Z,20.4
2022-11-20T07:07:41.348Z,20.4
2022-11-20T07:09:25.032Z,20.4
2022-11-20T07:11:08.716Z,20.4
2022-11-20T07:12:52.434Z,20.4
2022-11-20T07:14:36.147Z,20.4
2022-11-20T07:16:19.838Z,20.4
2022-11-20T07:19:47.236Z,20.4
2022-11-20T07:21:30.949Z,20.4
2022-11-20T07:23:14.644Z,20.4
2022-11-20T07:24:58.341Z,20.3
2022-11-20T07:26:42.066Z,20.3
2022-11-20T07:28:25.740Z,20.3
2022-11-20T07:30:09.448Z,20.4
2022-11-20T07:31:53.191Z,20.4
2022-11-20T07:33:36.874Z,20.4
2022-11-20T07:35:20.579Z,20.4
2022-11-20T07:37:04.257Z,20.4
2022-11-20T07:38:47.971Z,20.4
2022-11-20T07:40:31.671Z,20.5
2022-11-20T07:42:15.375Z,20.5
2022-11-20T07:43:59.084Z,20.5
2022-11-20T07:45:42.766Z,20.6
2022-11-20T07:47:26.490Z,20.6
2022-11-20T07:49:10.169Z,20.6
2022-11-20T07:50:53.896Z,20.6
2022-11-20T07:52:37.584Z,20.6
2022-11-20T07:54:21.270Z,20.6
2022-11-20T07:56:04.991Z,20.6
2022-11-20T07:57:48.688Z,20.6
2022-11-20T07:59:32.378Z,20.6
2022-11-20T08:01:16.088Z,20.6
2022-11-20T08:02:59.778Z,20.6
2022-11-20T08:04:43.481Z,20.6
2022-11-20T08:06:27.214Z,20.7
2022-11-20T08:08:10.884Z,20.7
2022-11-20T08:09:54.591Z,20.7
2022-11-20T08:11:38.421Z,20.7
2022-11-20T08:13:22.037Z,20.7
2022-11-20T08:15:05.697Z,20.7
2022-11-20T08:16:49.438Z,20.6
2022-11-20T08:18:33.115Z,20.6
2022-11-20T08:20:16.836Z,20.6
2022-11-20T08:22:00.570Z,20.5
2022-11-20T08:23:44.204Z,20.5
2022-11-20T08:25:27.950Z,20.5
2022-11-20T08:27:11.602Z,20.5
2022-11-20T08:28:55.320Z,20.5
2022-11-20T08:30:39.010Z,20.5
2022-11-20T08:32:22.695Z,20.5
2022-11-20T08:34:06.437Z,20.5
2022-11-20T08:35:50.096Z,20.5
2022-11-20T08:37:33.807Z,20.6
2022-11-20T08:39:17.495Z,20.6
2022-11-20T08:41:01.231Z,20.6
2022-11-20T08:42:44.910Z,20.6
2022-11-20T08:44:28.615Z,20.6
2022-11-20T08:46:12.321Z,20.6
2022-11-20T08:47:56.013Z,20.6
2022-11-20T08:49:39.719Z,20.7
2022-11-20T08:51:23.437Z,20.7
2022-11-20T08:53:07.147Z,20.7
2022-11-20T08:54:50.831Z,20.7
2022-11-20T08:56:34.530Z,20.7
2022-11-20T08:58:18.308Z,20.7
2022-11-20T09:00:01.931Z,20.7
2022-11-20T09:01:45.641Z,20.7
2022-11-20T09:03:29.469Z,20.7
2022-11-20T09:05:13.188Z,20.7
2022-11-20T09:06:56.972Z,20.7
2022-11-20T09:08:40.510Z,20.7
2022-11-20T09:10:24.376Z,20.7
2022-11-20T09:12:08.000Z,20.8
2022-11-20T09:13:51.531Z,20.9
2022-11-20T09:15:35.460Z,20.9
2022-11-20T09:17:18.966Z,20.9
2022-11-20T09:19:02.806Z,20.9
2022-11-20T09:20:46.492Z,21
2022-11-20T09:22:30.052Z,21
2022-11-20T09:24:13.917Z,21
2022-11-20T09:25:57.645Z,21
2022-11-20T09:27:41.326Z,20.9
2022-11-20T09:29:25.044Z,20.9
2022-11-20T09:31:08.562Z,20.9
2022-11-20T09:32:52.281Z,20.9
2022-11-20T09:34:36.089Z,20.9
2022-11-20T09:36:19.681Z,20.9
2022-11-20T09:38:03.450Z,20.9
2022-11-20T09:39:47.245Z,20.9
2022-11-20T09:41:30.965Z,20.9
2022-11-20T09:43:14.629Z,20.9
2022-11-20T09:44:58.351Z,20.8
2022-11-20T09:46:42.062Z,20.8
2022-11-20T09:48:25.572Z,20.8
2022-11-20T09:50:09.565Z,20.8
2022-11-20T09:51:53.152Z,20.8
2022-11-20T09:53:36.861Z,20.7
2022-11-20T09:55:20.526Z,20.7
2022-11-20T09:57:04.253Z,20.7
2022-11-20T09:58:47.975Z,20.7
2022-11-20T10:00:31.570Z,20.7
2022-11-20T10:02:15.418Z,20.7
2022-11-20T10:03:59.045Z,20.7
2022-11-20T10:05:42.803Z,20.7
2022-11-20T10:07:26.490Z,20.7
2022-11-20T10:09:09.989Z,20.7
2022-11-20T10:10:53.942Z,20.7
2022-11-20T10:12:37.639Z,20.6
2022-11-20T10:14:21.286Z,20.6
2022-11-20T10:16:04.991Z,20.7
2022-11-20T10:17:48.502Z,20.7
2022-11-20T10:19:32.338Z,20.7
2022-11-20T10:21:16.098Z,20.8
2022-11-20T10:22:59.828Z,20.8
2022-11-20T10:24:43.491Z,20.8
2022-11-20T10:26:27.055Z,20.8
2022-11-20T10:28:10.924Z,20.9
2022-11-20T10:29:54.638Z,20.9
2022-11-20T10:31:38.237Z,20.9
2022-11-20T10:33:22.011Z,20.9
2022-11-20T10:35:05.519Z,20.9
2022-11-20T10:36:49.413Z,20.9
2022-11-20T10:38:33.105Z,20.9
2022-11-20T10:40:16.620Z,20.9
2022-11-20T10:42:00.516Z,20.9
2022-11-20T10:43:44.198Z,20.9
2022-11-20T10:45:27.905Z,21
2022-11-20T10:47:11.620Z,21
2022-11-20T10:48:55.341Z,21
2022-11-20T10:50:39.060Z,21
2022-11-20T10:52:22.802Z,21
2022-11-20T10:54:06.394Z,21
2022-11-20T10:55:50.152Z,21
2022-11-20T10:57:33.830Z,21
2022-11-20T10:59:17.443Z,21
2022-11-20T11:01:01.190Z,21
2022-11-20T11:02:44.915Z,21
2022-11-20T11:04:28.618Z,21
2022-11-20T11:06:12.324Z,21
2022-11-20T11:07:55.991Z,21
2022-11-20T11:09:39.729Z,21
2022-11-20T11:11:23.448Z,21
2022-11-20T11:13:07.127Z,21
2022-11-20T11:14:50.888Z,21
2022-11-20T11:16:34.555Z,21
2022-11-20T11:18:18.179Z,20.9
2022-11-20T11:20:01.892Z,20.9
2022-11-20T11:21:45.627Z,20.9
2022-11-20T11:23:29.243Z,20.9
2022-11-20T11:25:13.026Z,20.9
2022-11-20T11:26:56.758Z,20.8
2022-11-20T11:28:40.460Z,20.8
2022-11-20T11:30:24.115Z,20.8
2022-11-20T11:32:07.667Z,20.8
2022-11-20T11:33:51.567Z,20.8
2022-11-20T11:35:35.231Z,20.8
2022-11-20T11:37:18.774Z,20.8
2022-11-20T11:39:02.661Z,20.8
2022-11-20T11:40:46.401Z,20.8
2022-11-20T11:42:30.125Z,20.8
2022-11-20T11:44:13.570Z,20.8
2022-11-20T11:45:57.462Z,20.8
2022-11-20T11:47:41.160Z,20.9
2022-11-20T11:49:24.853Z,21
2022-11-20T11:51:08.555Z,21
2022-11-20T11:52:52.322Z,21
2022-11-20T11:54:35.983Z,21.1
2022-11-20T11:56:19.704Z,21.2
2022-11-20T11:58:03.325Z,21.3
2022-11-20T11:59:47.089Z,21.4
2022-11-20T12:01:30.726Z,21.4
2022-11-20T12:03:14.494Z,21.5
2022-11-20T12:04:58.159Z,21.5
2022-11-20T12:06:41.883Z,21.5
2022-11-20T12:08:25.521Z,21.5
2022-11-20T12:10:09.206Z,21.5
2022-11-20T12:11:52.848Z,21.6
2022-11-20T12:13:36.661Z,21.6
2022-11-20T12:15:20.379Z,21.7
2022-11-20T12:17:04.082Z,21.7
2022-11-20T12:18:47.821Z,21.7
2022-11-20T12:20:31.564Z,21.8
2022-11-20T12:22:15.222Z,21.8
2022-11-20T12:23:58.908Z,21.8
2022-11-20T12:25:42.626Z,21.9
2022-11-20T12:27:26.257Z,21.9
2022-11-20T12:29:09.841Z,21.9
2022-11-20T12:30:53.715Z,22
2022-11-20T12:32:37.402Z,22
2022-11-20T12:34:21.150Z,22
2022-11-20T12:36:04.823Z,22
2022-11-20T12:37:48.568Z,22
2022-11-20T12:39:32.178Z,21.9
2022-11-20T12:41:15.751Z,21.9
2022-11-20T12:42:59.658Z,21.8
2022-11-20T12:44:43.338Z,21.8
2022-11-20T12:46:26.998Z,21.8
2022-11-20T12:48:10.691Z,21.8
2022-11-20T12:49:54.461Z,21.8
2022-11-20T12:51:38.196Z,21.8
2022-11-20T12:53:21.819Z,21.8
2022-11-20T12:55:05.570Z,21.9
2022-11-20T12:56:49.277Z,21.9
2022-11-20T12:58:32.972Z,21.9
2022-11-20T13:00:16.665Z,21.9
2022-11-20T13:02:00.319Z,21.9
2022-11-20T13:03:44.074Z,21.9
2022-11-20T13:05:27.718Z,21.8
2022-11-20T13:07:11.326Z,21.8
2022-11-20T13:08:54.999Z,21.8
2022-11-20T13:10:38.781Z,21.8
2022-11-20T13:12:22.537Z,21.7
2022-11-20T13:14:06.165Z,21.7
2022-11-20T13:15:49.888Z,21.7
2022-11-20T13:17:33.634Z,21.7
2022-11-20T13:19:17.259Z,21.8
2022-11-20T13:21:00.892Z,21.8
2022-11-20T13:22:44.718Z,21.8
2022-11-20T13:24:28.513Z,21.8
2022-11-20T13:26:12.010Z,21.8
2022-11-20T13:27:55.722Z,21.8
2022-11-20T13:29:39.409Z,21.8
2022-11-20T13:31:23.111Z,21.7
2022-11-20T13:33:06.866Z,21.7
2022-11-20T13:34:50.601Z,21.6
2022-11-20T13:36:34.347Z,21.6
2022-11-20T13:38:17.999Z,21.6
2022-11-20T13:40:01.726Z,21.6
2022-11-20T13:41:45.332Z,21.6
2022-11-20T13:43:29.060Z,21.6
2022-11-20T13:45:12.781Z,21.6
2022-11-20T13:46:56.528Z,21.5
2022-11-20T13:48:40.132Z,21.5
2022-11-20T13:50:23.957Z,21.5
2022-11-20T13:52:07.536Z,21.5
2022-11-20T13:53:51.248Z,21.5
2022-11-20T13:55:34.960Z,21.5
2022-11-20T13:57:18.624Z,21.6
2022-11-20T13:59:02.326Z,21.5
2022-11-20T14:00:46.173Z,21.5
2022-11-20T14:02:29.771Z,21.5
2022-11-20T14:04:13.562Z,21.5
2022-11-20T14:05:57.161Z,21.5
2022-11-20T14:07:40.878Z,21.5
2022-11-20T14:09:24.520Z,21.5
2022-11-20T14:11:08.223Z,21.5
2022-11-20T14:12:51.956Z,21.4
2022-11-20T14:14:35.708Z,21.4
2022-11-20T14:16:19.453Z,21.4
2022-11-20T14:18:03.152Z,21.3
2022-11-20T14:19:46.772Z,21.3
2022-11-20T14:21:30.441Z,21.3
2022-11-20T14:23:14.130Z,21.3
2022-11-20T14:24:57.921Z,21.3
2022-11-20T14:26:41.565Z,21.3
2022-11-20T14:28:25.290Z,21.2
2022-11-20T14:30:08.932Z,21.2
2022-11-20T14:31:52.638Z,21.2
2022-11-20T14:33:36.434Z,21.2
2022-11-20T14:35:20.067Z,21.2
2022-11-20T14:37:03.735Z,21.2
2022-11-20T14:38:47.557Z,21.2
2022-11-20T14:40:31.181Z,21.2
2022-11-20T14:42:14.864Z,21.2
2022-11-20T14:43:58.676Z,21.2
2022-11-20T14:45:42.244Z,21.2
2022-11-20T14:47:25.963Z,21.1
2022-11-20T14:49:09.736Z,21.1
2022-11-20T14:50:53.341Z,21.1
2022-11-20T14:52:37.097Z,21.1
2022-11-20T14:54:20.930Z,21.1
2022-11-20T14:56:04.536Z,21.1
2022-11-20T14:57:48.337Z,21.1
2022-11-20T14:59:31.935Z,21
2022-11-20T15:01:15.579Z,21
2022-11-20T15:02:59.301Z,21
2022-11-20T15:06:26.671Z,21
2022-11-20T15:08:10.394Z,21
2022-11-20T15:09:54.064Z,20.9
2022-11-20T15:11:37.844Z,20.9
2022-11-20T15:13:21.533Z,20.9
2022-11-20T15:15:05.203Z,20.9
2022-11-20T15:16:48.879Z,20.9
2022-11-20T15:18:32.734Z,20.8
2022-11-20T15:20:16.279Z,20.8
2022-11-20T15:21:59.986Z,20.8
2022-11-20T15:23:43.691Z,20.8
2022-11-20T15:25:27.529Z,20.7
2022-11-20T15:27:11.201Z,20.7
2022-11-20T15:28:54.932Z,20.7
2022-11-20T15:30:38.621Z,20.7
2022-11-20T15:32:22.191Z,20.7
2022-11-20T15:34:06.040Z,20.7
2022-11-20T15:35:49.773Z,20.6
2022-11-20T15:37:33.503Z,20.6
2022-11-20T15:39:17.012Z,20.6
2022-11-20T15:41:00.834Z,20.6
2022-11-20T15:42:44.508Z,20.6
2022-11-20T15:44:28.240Z,20.6
2022-11-20T15:46:11.969Z,20.6
2022-11-20T15:47:55.655Z,20.6
2022-11-20T15:49:39.417Z,20.6
2022-11-20T15:51:23.072Z,20.6
2022-11-20T15:53:06.711Z,20.5
2022-11-20T15:54:50.418Z,20.5
2022-11-20T15:56:34.022Z,20.5
2022-11-20T15:58:17.786Z,20.5
2022-11-20T16:00:01.460Z,20.5
2022-11-20T16:01:45.191Z,20.5
2022-11-20T16:03:28.953Z,20.5
2022-11-20T16:05:12.561Z,20.5
2022-11-20T16:06:56.369Z,20.5
2022-11-20T16:08:39.968Z,20.5
2022-11-20T16:10:23.691Z,20.5
2022-11-20T16:12:07.418Z,20.5
2022-11-20T16:13:51.069Z,20.5
2022-11-20T16:15:34.755Z,20.5
2022-11-20T16:17:18.586Z,20.4
2022-11-20T16:19:02.206Z,20.4
2022-11-20T16:20:45.850Z,20.4
2022-11-20T16:22:29.542Z,20.4
2022-11-20T16:24:13.377Z,20.4
2022-11-20T16:25:57.142Z,20.4
2022-11-20T16:27:40.671Z,20.4
2022-11-20T16:29:24.364Z,20.4
2022-11-20T16:31:08.115Z,20.4
2022-11-20T16:32:51.848Z,20.4
2022-11-20T16:34:35.585Z,20.4
2022-11-20T16:36:19.174Z,20.4
2022-11-20T16:38:02.905Z,20.4
2022-11-20T16:39:46.600Z,20.4
2022-11-20T16:41:30.332Z,20.4
2022-11-20T16:43:13.992Z,20.5
2022-11-20T16:44:57.764Z,20.5
2022-11-20T16:46:41.396Z,20.5
2022-11-20T16:48:25.087Z,20.5
2022-11-20T16:50:08.862Z,20.5
2022-11-20T16:51:52.475Z,20.5
2022-11-20T16:53:36.252Z,20.5
2022-11-20T16:55:20.014Z,20.5
2022-11-20T16:57:03.679Z,20.5
2022-11-20T16:58:47.293Z,20.6
2022-11-20T17:00:31.006Z,20.6
2022-11-20T17:02:14.718Z,20.6
2022-11-20T17:03:58.488Z,20.6
2022-11-20T17:05:42.185Z,20.6
2022-11-20T17:07:25.929Z,20.6
2022-11-20T17:09:09.624Z,20.6
2022-11-20T17:10:53.282Z,20.6
2022-11-20T17:12:36.947Z,20.7
2022-11-20T17:14:20.609Z,20.7
2022-11-20T17:16:04.327Z,20.7
2022-11-20T17:17:48.078Z,20.7
2022-11-20T17:19:31.744Z,20.8
2022-11-20T17:21:15.536Z,20.8
2022-11-20T17:22:59.228Z,20.9
2022-11-20T17:24:42.828Z,20.9
2022-11-20T17:26:26.657Z,20.9
2022-11-20T17:28:10.316Z,21
2022-11-20T17:29:53.938Z,21
2022-11-20T17:31:37.705Z,21
2022-11-20T17:33:21.343Z,21
2022-11-20T17:35:05.194Z,21.1
2022-11-20T17:36:48.776Z,21.1
2022-11-20T17:38:32.458Z,21.1
2022-11-20T17:40:16.151Z,21.1
2022-11-20T17:41:59.849Z,21.2
2022-11-20T17:43:43.555Z,21.2
2022-11-20T17:45:27.252Z,21.2
2022-11-20T17:47:11.028Z,21.2
2022-11-20T17:48:54.762Z,21.2
2022-11-20T17:50:38.370Z,21.2
2022-11-20T17:52:22.060Z,21.3
2022-11-20T17:54:05.809Z,21.3
2022-11-20T17:55:49.481Z,21.3
2022-11-20T17:57:33.223Z,21.3
2022-11-20T17:59:16.929Z,21.4
2022-11-20T18:01:00.700Z,21.4
2022-11-20T18:02:44.294Z,21.4
2022-11-20T18:04:27.997Z,21.4
2022-11-20T18:06:11.663Z,21.4
2022-11-20T18:07:55.574Z,21.5
2022-11-20T18:09:39.082Z,21.5
2022-11-20T18:11:22.883Z,21.5
2022-11-20T18:13:06.560Z,21.5
2022-11-20T18:14:50.409Z,21.5
2022-11-20T18:16:33.981Z,21.5
2022-11-20T18:18:17.602Z,21.5
2022-11-20T18:20:01.328Z,21.5
2022-11-20T18:21:45.024Z,21.5
2022-11-20T18:23:28.807Z,21.5
2022-11-20T18:25:12.388Z,21.5
2022-11-20T18:26:56.230Z,21.5
2022-11-20T18:28:39.789Z,21.5
2022-11-20T18:30:23.671Z,21.5
2022-11-20T18:32:07.384Z,21.5
2022-11-20T18:33:51.159Z,21.5
2022-11-20T18:35:34.751Z,21.5
2022-11-20T18:37:18.500Z,21.5
2022-11-20T18:39:02.103Z,21.5
2022-11-20T18:40:45.885Z,21.4
2022-11-20T18:42:29.553Z,21.4
2022-11-20T18:44:13.320Z,21.4
2022-11-20T18:45:56.951Z,21.4
2022-11-20T18:47:40.498Z,21.4
2022-11-20T18:49:24.186Z,21.4
2022-11-20T18:51:07.976Z,21.4
2022-11-20T18:52:51.779Z,21.4
2022-11-20T18:54:35.294Z,21.4
2022-11-20T18:56:19.178Z,21.4
2022-11-20T18:58:02.696Z,21.4
2022-11-20T18:59:46.541Z,21.4
2022-11-20T19:01:30.115Z,21.4
2022-11-20T19:03:13.978Z,21.4
2022-11-20T19:04:57.520Z,21.4
2022-11-20T19:06:41.266Z,21.3
2022-11-20T19:08:24.943Z,21.4
2022-11-20T19:10:08.757Z,21.3
2022-11-20T19:11:52.324Z,21.3
2022-11-20T19:13:36.070Z,21.3
2022-11-20T19:15:19.746Z,21.3
2022-11-20T19:17:03.447Z,21.3
2022-11-20T19:18:47.331Z,21.3
2022-11-20T19:20:31.003Z,21.3
2022-11-20T19:22:14.704Z,21.3
2022-11-20T19:23:58.406Z,21.2
2022-11-20T19:25:41.961Z,21.2
2022-11-20T19:27:25.680Z,21.2
2022-11-20T19:29:09.329Z,21.2
2022-11-20T19:30:53.201Z,21.2
2022-11-20T19:32:36.933Z,21.2
2022-11-20T19:34:20.619Z,21.2
2022-11-20T19:36:04.287Z,21.2
2022-11-20T19:37:48.038Z,21.2
2022-11-20T19:39:31.714Z,21.2
2022-11-20T19:41:15.421Z,21.2
2022-11-20T19:42:59.119Z,21.2
2022-11-20T19:44:42.828Z,21.2
2022-11-20T19:46:26.519Z,21.2
2022-11-20T19:48:10.054Z,21.2
2022-11-20T19:49:53.764Z,21.2
2022-11-20T19:51:37.467Z,21.2
2022-11-20T19:53:21.181Z,21.2
2022-11-20T19:55:04.929Z,21.2
2022-11-20T19:56:48.624Z,21.2
2022-11-20T19:58:32.389Z,21.2
2022-11-20T20:00:16.159Z,21.1
2022-11-20T20:01:59.833Z,21.1
2022-11-20T20:03:43.570Z,21.1
2022-11-20T20:05:27.081Z,21.1
2022-11-20T20:07:10.841Z,21.1
2022-11-20T20:08:54.649Z,21.1
2022-11-20T20:10:38.373Z,21.1
2022-11-20T20:12:22.067Z,21.1
2022-11-20T20:14:05.753Z,21.1
2022-11-20T20:15:49.300Z,21.1
2022-11-20T20:17:32.745Z,21.1
2022-11-20T20:19:16.548Z,21.1
2022-11-20T20:21:00.207Z,21.1
2022-11-20T20:22:43.951Z,21.1
2022-11-20T20:24:27.687Z,21.1
2022-11-20T20:26:11.366Z,21
2022-11-20T20:27:55.001Z,21.1
2022-11-20T20:29:38.631Z,21
2022-11-20T20:31:22.430Z,21.1
2022-11-20T20:33:06.010Z,21.1
2022-11-20T20:34:49.875Z,21
2022-11-20T20:36:33.453Z,21
2022-11-20T20:38:17.164Z,21.1
2022-11-20T20:40:00.884Z,21
2022-11-20T20:41:44.663Z,21
2022-11-20T20:43:28.352Z,21
2022-11-20T20:45:11.970Z,21
2022-11-20T20:46:55.823Z,21
2022-11-20T20:48:39.426Z,21
2022-11-20T20:50:23.144Z,21
2022-11-20T20:52:06.935Z,21
2022-11-20T20:53:50.425Z,21
2022-11-20T20:55:34.137Z,21
2022-11-20T20:57:17.851Z,21
2022-11-20T20:59:01.556Z,21
2022-11-20T21:00:45.254Z,21
2022-11-20T21:02:28.957Z,21
2022-11-20T21:04:12.651Z,21
2022-11-20T21:05:56.351Z,21
2022-11-20T21:07:40.049Z,21
2022-11-20T21:09:23.764Z,21
2022-11-20T21:11:07.451Z,21
2022-11-20T21:14:34.856Z,21
2022-11-20T21:16:18.557Z,21
2022-11-20T21:18:02.258Z,21
2022-11-20T21:19:45.960Z,21
2022-11-20T21:21:29.721Z,21
2022-11-20T21:23:13.361Z,21
2022-11-20T21:24:57.060Z,21
2022-11-20T21:26:40.758Z,21
2022-11-20T21:28:24.457Z,21
2022-11-20T21:30:08.172Z,21
2022-11-20T21:31:51.880Z,21
2022-11-20T21:33:35.579Z,21
2022-11-20T21:35:19.284Z,20.9
2022-11-20T21:37:02.980Z,20.9
2022-11-20T21:38:46.706Z,20.9
2022-11-20T21:40:30.387Z,20.9
2022-11-20T21:42:14.082Z,20.9
2022-11-20T21:43:57.790Z,20.9
2022-11-20T21:45:41.496Z,20.9
2022-11-20T21:47:25.196Z,20.9
2022-11-20T21:49:08.878Z,20.9
2022-11-20T21:50:52.601Z,20.9
2022-11-20T21:52:36.333Z,20.9
2022-11-20T21:54:19.999Z,20.9
2022-11-20T21:56:03.696Z,20.9
2022-11-20T21:57:47.396Z,20.9
2022-11-20T21:59:31.106Z,20.9
2022-11-20T22:01:14.813Z,20.9
2022-11-20T22:02:58.505Z,20.9
2022-11-20T22:04:42.211Z,20.9
2022-11-20T22:06:25.930Z,20.9
2022-11-20T22:08:09.622Z,20.9
2022-11-20T22:09:53.313Z,20.9
2022-11-20T22:11:37.024Z,20.9
2022-11-20T22:13:20.718Z,20.9
2022-11-20T22:15:04.439Z,20.9
2022-11-20T22:16:48.121Z,20.9
2022-11-20T22:18:31.839Z,20.9
2022-11-20T22:20:15.545Z,20.9
2022-11-20T22:21:59.263Z,20.8
2022-11-20T22:23:42.948Z,20.8
2022-11-20T22:25:26.653Z,20.8
2022-11-20T22:27:10.361Z,20.8
2022-11-20T22:28:54.070Z,20.8
2022-11-20T22:30:37.763Z,20.8
2022-11-20T22:32:21.449Z,20.8
2022-11-20T22:34:05.157Z,20.8
2022-11-20T22:35:48.918Z,20.8
2022-11-20T22:37:32.557Z,20.8
2022-11-20T22:39:16.321Z,20.8
2022-11-20T22:40:59.973Z,20.8
2022-11-20T22:42:43.668Z,20.8
2022-11-20T22:44:27.381Z,20.8
2022-11-20T22:46:11.074Z,20.8
2022-11-20T22:47:54.782Z,20.8
2022-11-20T22:49:38.482Z,20.8
2022-11-20T22:51:22.176Z,20.8
2022-11-20T22:53:05.873Z,20.7
2022-11-20T22:54:49.600Z,20.7
2022-11-20T22:56:33.282Z,20.7
2022-11-20T22:58:16.990Z,20.7
2022-11-20T23:00:00.671Z,20.7
2022-11-20T23:01:44.390Z,20.7
2022-11-20T23:03:28.077Z,20.7
2022-11-20T23:05:11.789Z,20.7
2022-11-20T23:06:55.479Z,20.7
2022-11-20T23:08:39.180Z,20.7
2022-11-20T23:10:22.907Z,20.7
2022-11-20T23:12:06.614Z,20.7
2022-11-20T23:13:50.291Z,20.7
2022-11-20T23:15:34.008Z,20.7